sensor_id;sensor_type;location;lat;lon;timestamp;pressure;altitude;pressure_sealevel;temperature;humidity
22550;BME280;11441;57.164;-2.120;2023-09-08T18:41:31;100985.72;;;22.83;100.00
22550;BME280;11441;57.164;-2.120;2023-09-08T18:43:58;100983.31;;;22.85;100.00
22550;BME280;11441;57.164;-2.120;2023-09-08T18:46:25;100979.72;;;22.65;100.00
22550;BME280;11441;57.164;-2.120;2023-09-08T18:48:52;100977.38;;;22.79;100.00
22550;BME280;11441;57.164;-2.120;2023-09-08T18:51:18;100985.72;;;22.83;100.00
22550;BME280;11441;57.164;-2.120;2023-09-08T18:53:46;100983.38;;;22.62;100.00
22550;BME280;11441;57.164;-2.120;2023-09-08T18:56:12;100977.97;;;22.71;100.00
22550;BME280;11441;57.164;-2.120;2023-09-08T18:58:46;100974.25;;;22.57;100.00
22550;BME280;11441;57.164;-2.120;2023-09-08T19:01:13;100988.19;;;22.61;100.00
22550;BME280;11441;57.164;-2.120;2023-09-08T19:03:40;100975.94;;;22.51;100.00
22550;BME280;11441;57.164;-2.120;2023-09-08T19:06:09;100973.56;;;22.50;100.00
22550;BME280;11441;57.164;-2.120;2023-09-08T19:08:36;100985.03;;;22.59;100.00
22550;BME280;11441;57.164;-2.120;2023-09-08T19:11:03;100979.47;;;22.75;100.00
22550;BME280;11441;57.164;-2.120;2023-09-08T19:13:30;100971.25;;;22.45;100.00
22550;BME280;11441;57.164;-2.120;2023-09-08T19:15:58;100979.44;;;22.59;100.00
22550;BME280;11441;57.164;-2.120;2023-09-08T19:18:25;100982.31;;;22.55;100.00
22550;BME280;11441;57.164;-2.120;2023-09-08T19:20:52;100992.31;;;22.76;100.00
22550;BME280;11441;57.164;-2.120;2023-09-08T19:23:19;100987.19;;;22.51;100.00
22550;BME280;11441;57.164;-2.120;2023-09-08T19:25:46;100982.00;;;22.50;100.00
22550;BME280;11441;57.164;-2.120;2023-09-08T19:28:13;100983.09;;;22.56;100.00
22550;BME280;11441;57.164;-2.120;2023-09-08T19:30:45;100983.22;;;22.69;100.00
22550;BME280;11441;57.164;-2.120;2023-09-08T19:33:14;100980.78;;;22.71;100.00
22550;BME280;11441;57.164;-2.120;2023-09-08T19:35:44;100979.78;;;22.61;100.00
22550;BME280;11441;57.164;-2.120;2023-09-08T19:38:11;100981.50;;;22.55;100.00
22550;BME280;11441;57.164;-2.120;2023-09-08T19:40:39;100986.25;;;22.58;100.00
22550;BME280;11441;57.164;-2.120;2023-09-08T19:43:06;100983.59;;;22.51;100.00
22550;BME280;11441;57.164;-2.120;2023-09-08T19:45:36;100981.13;;;22.33;100.00
22550;BME280;11441;57.164;-2.120;2023-09-08T19:48:04;100989.97;;;22.31;100.00
22550;BME280;11441;57.164;-2.120;2023-09-08T19:50:32;100976.06;;;22.24;100.00
22550;BME280;11441;57.164;-2.120;2023-09-08T19:52:59;100983.38;;;22.18;100.00
22550;BME280;11441;57.164;-2.120;2023-09-08T19:55:26;100983.84;;;22.13;100.00
22550;BME280;11441;57.164;-2.120;2023-09-08T19:57:53;100975.72;;;21.98;100.00
22550;BME280;11441;57.164;-2.120;2023-09-08T20:00:20;100977.91;;;21.87;100.00
22550;BME280;11441;57.164;-2.120;2023-09-08T20:02:47;100981.25;;;22.02;100.00
22550;BME280;11441;57.164;-2.120;2023-09-08T20:05:14;100973.06;;;22.11;100.00
22550;BME280;11441;57.164;-2.120;2023-09-08T20:07:41;100968.38;;;22.28;100.00
22550;BME280;11441;57.164;-2.120;2023-09-08T20:10:10;100980.41;;;22.29;100.00
22550;BME280;11441;57.164;-2.120;2023-09-08T20:12:38;100982.69;;;22.34;100.00
22550;BME280;11441;57.164;-2.120;2023-09-08T20:15:08;100973.69;;;22.22;100.00
22550;BME280;11441;57.164;-2.120;2023-09-08T20:17:35;100974.56;;;22.39;100.00
22550;BME280;11441;57.164;-2.120;2023-09-08T20:20:02;100970.41;;;22.04;100.00
22550;BME280;11441;57.164;-2.120;2023-09-08T20:22:29;100969.19;;;21.81;100.00
22550;BME280;11441;57.164;-2.120;2023-09-08T20:24:55;100966.91;;;21.45;100.00
22550;BME280;11441;57.164;-2.120;2023-09-08T20:27:22;100964.25;;;21.65;100.00
22550;BME280;11441;57.164;-2.120;2023-09-08T20:29:49;100973.38;;;21.70;100.00
22550;BME280;11441;57.164;-2.120;2023-09-08T20:32:20;100959.38;;;21.70;100.00
22550;BME280;11441;57.164;-2.120;2023-09-08T20:34:47;100967.91;;;21.86;100.00
22550;BME280;11441;57.164;-2.120;2023-09-08T20:37:14;100955.59;;;21.56;100.00
22550;BME280;11441;57.164;-2.120;2023-09-08T20:39:41;100951.31;;;21.48;100.00
22550;BME280;11441;57.164;-2.120;2023-09-08T20:42:08;100959.13;;;21.60;100.00
22550;BME280;11441;57.164;-2.120;2023-09-08T20:44:35;100956.56;;;21.70;100.00
22550;BME280;11441;57.164;-2.120;2023-09-08T20:47:03;100954.38;;;21.57;100.00
22550;BME280;11441;57.164;-2.120;2023-09-08T20:49:30;100948.75;;;21.57;100.00
22550;BME280;11441;57.164;-2.120;2023-09-08T20:51:57;100948.16;;;21.46;100.00
22550;BME280;11441;57.164;-2.120;2023-09-08T20:54:24;100935.06;;;21.36;100.00
22550;BME280;11441;57.164;-2.120;2023-09-08T20:56:51;100941.72;;;21.45;100.00
22550;BME280;11441;57.164;-2.120;2023-09-08T20:59:18;100940.91;;;21.45;100.00
22550;BME280;11441;57.164;-2.120;2023-09-08T21:01:47;100933.06;;;21.36;100.00
22550;BME280;11441;57.164;-2.120;2023-09-08T21:04:14;100928.41;;;21.53;100.00
22550;BME280;11441;57.164;-2.120;2023-09-08T21:06:40;100930.47;;;21.22;100.00
22550;BME280;11441;57.164;-2.120;2023-09-08T21:09:07;100926.03;;;21.24;100.00
22550;BME280;11441;57.164;-2.120;2023-09-08T21:11:35;100921.91;;;21.33;100.00
22550;BME280;11441;57.164;-2.120;2023-09-08T21:14:01;100925.19;;;21.27;100.00
22550;BME280;11441;57.164;-2.120;2023-09-08T21:16:28;100925.91;;;21.32;100.00
22550;BME280;11441;57.164;-2.120;2023-09-08T21:18:55;100928.63;;;21.12;100.00
22550;BME280;11441;57.164;-2.120;2023-09-08T21:21:22;100916.22;;;21.13;100.00
22550;BME280;11441;57.164;-2.120;2023-09-08T21:23:49;100912.72;;;21.05;100.00
22550;BME280;11441;57.164;-2.120;2023-09-08T21:26:15;100911.81;;;21.12;100.00
22550;BME280;11441;57.164;-2.120;2023-09-08T21:28:43;100902.69;;;21.07;100.00
22550;BME280;11441;57.164;-2.120;2023-09-08T21:31:10;100911.22;;;20.97;100.00
22550;BME280;11441;57.164;-2.120;2023-09-08T21:33:37;100903.59;;;21.01;100.00
22550;BME280;11441;57.164;-2.120;2023-09-08T21:36:05;100905.91;;;20.79;100.00
22550;BME280;11441;57.164;-2.120;2023-09-08T21:38:32;100909.00;;;20.84;100.00
22550;BME280;11441;57.164;-2.120;2023-09-08T21:41:06;100897.28;;;20.93;100.00
22550;BME280;11441;57.164;-2.120;2023-09-08T21:43:33;100895.31;;;20.94;100.00
22550;BME280;11441;57.164;-2.120;2023-09-08T21:46:04;100896.28;;;21.07;100.00
22550;BME280;11441;57.164;-2.120;2023-09-08T21:48:34;100897.03;;;21.11;100.00
22550;BME280;11441;57.164;-2.120;2023-09-08T21:51:01;100894.81;;;21.26;100.00
22550;BME280;11441;57.164;-2.120;2023-09-08T21:53:30;100895.31;;;20.94;100.00
22550;BME280;11441;57.164;-2.120;2023-09-08T21:55:56;100891.06;;;21.09;100.00
22550;BME280;11441;57.164;-2.120;2023-09-08T21:58:23;100896.66;;;21.09;100.00
22550;BME280;11441;57.164;-2.120;2023-09-08T22:00:50;100888.31;;;20.78;100.00
22550;BME280;11441;57.164;-2.120;2023-09-08T22:03:17;100886.56;;;20.88;100.00
22550;BME280;11441;57.164;-2.120;2023-09-08T22:05:44;100886.03;;;20.69;100.00
22550;BME280;11441;57.164;-2.120;2023-09-08T22:08:11;100880.22;;;20.84;100.00
22550;BME280;11441;57.164;-2.120;2023-09-08T22:10:37;100885.66;;;20.95;100.00
22550;BME280;11441;57.164;-2.120;2023-09-08T22:13:04;100880.97;;;20.57;100.00
22550;BME280;11441;57.164;-2.120;2023-09-08T22:15:31;100889.41;;;20.84;100.00
22550;BME280;11441;57.164;-2.120;2023-09-08T22:17:58;100877.09;;;20.47;100.00
22550;BME280;11441;57.164;-2.120;2023-09-08T22:20:25;100874.47;;;20.33;100.00
22550;BME280;11441;57.164;-2.120;2023-09-08T22:22:53;100870.72;;;20.47;100.00
22550;BME280;11441;57.164;-2.120;2023-09-08T22:25:19;100870.56;;;20.27;100.00
22550;BME280;11441;57.164;-2.120;2023-09-08T22:27:47;100872.44;;;20.37;100.00
22550;BME280;11441;57.164;-2.120;2023-09-08T22:30:15;100877.38;;;20.57;100.00
22550;BME280;11441;57.164;-2.120;2023-09-08T22:32:42;100867.34;;;20.63;100.00
22550;BME280;11441;57.164;-2.120;2023-09-08T22:35:10;100868.19;;;20.87;100.00
22550;BME280;11441;57.164;-2.120;2023-09-08T22:37:37;100871.19;;;21.00;100.00
22550;BME280;11441;57.164;-2.120;2023-09-08T22:40:04;100858.75;;;21.28;100.00
22550;BME280;11441;57.164;-2.120;2023-09-08T22:42:32;100854.50;;;21.20;100.00
22550;BME280;11441;57.164;-2.120;2023-09-08T22:45:00;100849.09;;;21.33;100.00
22550;BME280;11441;57.164;-2.120;2023-09-08T22:47:27;100852.91;;;21.19;100.00
22550;BME280;11441;57.164;-2.120;2023-09-08T22:49:59;100846.94;;;21.17;100.00
22550;BME280;11441;57.164;-2.120;2023-09-08T22:52:26;100847.84;;;21.10;100.00
22550;BME280;11441;57.164;-2.120;2023-09-08T22:54:54;100844.94;;;21.17;100.00
22550;BME280;11441;57.164;-2.120;2023-09-08T22:57:38;100845.72;;;21.18;100.00
22550;BME280;11441;57.164;-2.120;2023-09-08T23:00:05;100839.38;;;21.14;100.00
22550;BME280;11441;57.164;-2.120;2023-09-08T23:02:33;100847.97;;;21.03;100.00
22550;BME280;11441;57.164;-2.120;2023-09-08T23:05:00;100845.28;;;21.19;100.00
22550;BME280;11441;57.164;-2.120;2023-09-08T23:07:27;100835.28;;;20.95;100.00
22550;BME280;11441;57.164;-2.120;2023-09-08T23:09:54;100837.56;;;21.03;100.00
22550;BME280;11441;57.164;-2.120;2023-09-08T23:12:20;100833.81;;;20.86;100.00
22550;BME280;11441;57.164;-2.120;2023-09-08T23:14:47;100841.59;;;21.26;100.00
22550;BME280;11441;57.164;-2.120;2023-09-08T23:17:20;100841.47;;;21.09;100.00
22550;BME280;11441;57.164;-2.120;2023-09-08T23:19:47;100842.38;;;21.26;100.00
22550;BME280;11441;57.164;-2.120;2023-09-08T23:22:14;100839.94;;;21.05;100.00
22550;BME280;11441;57.164;-2.120;2023-09-08T23:24:41;100842.91;;;21.18;100.00
22550;BME280;11441;57.164;-2.120;2023-09-08T23:27:08;100840.50;;;21.20;100.00
22550;BME280;11441;57.164;-2.120;2023-09-08T23:29:34;100834.97;;;20.62;100.00
22550;BME280;11441;57.164;-2.120;2023-09-08T23:32:01;100837.00;;;20.58;100.00
22550;BME280;11441;57.164;-2.120;2023-09-08T23:34:28;100832.06;;;20.69;100.00
22550;BME280;11441;57.164;-2.120;2023-09-08T23:36:55;100838.25;;;20.84;100.00
22550;BME280;11441;57.164;-2.120;2023-09-08T23:39:22;100819.72;;;20.66;100.00
22550;BME280;11441;57.164;-2.120;2023-09-08T23:41:50;100827.00;;;20.57;100.00
22550;BME280;11441;57.164;-2.120;2023-09-08T23:44:17;100814.53;;;20.34;100.00
22550;BME280;11441;57.164;-2.120;2023-09-08T23:46:44;100808.28;;;20.23;100.00
22550;BME280;11441;57.164;-2.120;2023-09-08T23:49:11;100815.19;;;20.45;100.00
22550;BME280;11441;57.164;-2.120;2023-09-08T23:51:38;100817.84;;;20.56;100.00
22550;BME280;11441;57.164;-2.120;2023-09-08T23:54:04;100804.47;;;20.40;100.00
22550;BME280;11441;57.164;-2.120;2023-09-08T23:56:31;100797.63;;;20.45;100.00
22550;BME280;11441;57.164;-2.120;2023-09-08T23:59:01;100793.03;;;20.31;100.00
